Novomar — 5BCT2 — position and weather

sailwx.info

Track history (hours):
 
Tides and Currents Weather Stations Pressure Air Temp Water Temp Dewpoint Dewpoint Depression Visibility Wind Speed Wind Dir Waves Ship Positions

Novomar

Last reported at 2015-Apr-27 23:09 UTC. Time now 2015-May-05 22:22 UTC.
Position N 55°38' E 015°23'.

Length 89 m; draft 5.5 m.

Type: Cargo ship. MMSI: 210974000.

Date/timePositionNaut miles runAvg speedWind from/ knotsBaromVisibWave heightAir tempDewpointWater temp
2015-Apr-27 23:09N 55°38' E 015°23'5 8.8
2015-Apr-27 22:33N 55°35' E 015°15'9 8.7
2015-Apr-27 21:33N 55°31' E 015°02'9 8.6
2015-Apr-27 20:33N 55°27' E 014°49'9 8.8
2015-Apr-27 19:33N 55°21' E 014°36'10 8.8
2015-Apr-27 18:28N 55°14' E 014°25'8 8.3
2015-Apr-27 17:32N 55°10' E 014°14'12 8.5
2015-Apr-27 16:11N 55°11' E 013°54'6 8.2
2015-Apr-27 15:30N 55°12' E 013°44'34 8.8
2015-Apr-27 11:33N 55°17' E 012°44'7 7.4
2015-Apr-27 10:33N 55°24' E 012°39'9 8.9
2015-Apr-27 09:33N 55°32' E 012°42'9 9.2
2015-Apr-27 08:33N 55°41' E 012°41'1010.1
2015-Apr-27 07:33N 55°51' E 012°39'10 9.8
2015-Apr-27 06:33N 56°01' E 012°38'9 8.9
2015-Apr-27 05:33N 56°08' E 012°28'1010.4
2015-Apr-27 04:33N 56°14' E 012°13'6610.5
2015-Apr-26 22:17N 57°16' E 011°32'7 9.9
2015-Apr-26 21:33N 57°23' E 011°27'9 9.4
2015-Apr-26 20:33N 57°31' E 011°17'1010.1
2015-Apr-26 19:31N 57°38' E 011°03'446 9.9
2015-Apr-24 22:20N 58°39' W 002°55'7 9.5
2015-Apr-24 21:33N 58°43' W 003°06'17 8.6
2015-Apr-24 19:33N 58°42' W 003°39'9 9.3
2015-Apr-24 18:33N 58°42' W 003°57'9 9.3
2015-Apr-24 17:33N 58°42' W 004°15'192 8.7
2015-Apr-23 19:33N 55°45' W 006°35'1110.8
2015-Apr-23 18:33N 55°35' W 006°29'1212.0
2015-Apr-23 17:33N 55°27' W 006°14'1212.0
2015-Apr-23 16:33N 55°19' W 005°57'1212.2
2015-Apr-23 15:33N 55°09' W 005°46'1310.6
2015-Apr-23 14:19N 54°57' W 005°36'7 9.6
2015-Apr-23 13:33N 54°51' W 005°30'9 8.5
2015-Apr-23 12:33N 54°43' W 005°25'8 8.1
2015-Apr-23 11:33N 54°35' W 005°20'9 9.1
2015-Apr-23 10:33N 54°27' W 005°14'10 9.9
2015-Apr-23 09:33N 54°18' W 005°06'1010.2
2015-Apr-23 08:32N 54°08' W 004°59'4511.1
2015-Apr-23 04:30N 53°34' W 004°10'1111.8
2015-Apr-23 03:33N 53°26' W 003°57'1111.1
2015-Apr-23 02:33N 53°20' W 003°41'2 1.9
2015-Apr-23 01:15N 53°18' W 003°40'0 0.0
2015-Apr-23 00:33N 53°18' W 003°40'0 0.0
2015-Apr-22 23:30N 53°18' W 003°40'0 0.4
2015-Apr-22 22:34N 53°18' W 003°40'3 2.5
2015-Apr-22 21:30N 53°21' W 003°41'0 0.1
2015-Apr-22 20:33N 53°21' W 003°41'0 0.1
2015-Apr-22 19:33N 53°21' W 003°41'0 0.0
2015-Apr-22 18:33N 53°21' W 003°41'0 0.0
2015-Apr-22 17:33N 53°21' W 003°41'0 0.0
2015-Apr-22 16:30N 53°21' W 003°41'0 0.0
2015-Apr-22 15:33N 53°21' W 003°41'0 0.0
2015-Apr-22 14:30N 53°21' W 003°41'0 0.5
2015-Apr-22 13:33N 53°21' W 003°41'3 2.5
2015-Apr-22 12:25N 53°18' W 003°40'0 0.0
2015-Apr-22 11:25N 53°18' W 003°40'0 0.0
2015-Apr-22 09:33N 53°18' W 003°40'2 2.0
2015-Apr-22 08:33N 53°20' W 003°41'1 1.0
2015-Apr-22 07:26N 53°21' W 003°42'0 0.0
2015-Apr-22 06:32N 53°21' W 003°42'0 0.0
2015-Apr-22 05:33N 53°21' W 003°42'6 5.6
2015-Apr-22 04:28N 53°25' W 003°50'1110.8
2015-Apr-22 03:25N 53°36' W 003°46'36 6.8
2015-Apr-21 22:11N 54°06' W 003°13'0 0.1
2015-Apr-21 19:27N 54°06' W 003°14'0 0.0
2015-Apr-21 01:32N 54°06' W 003°13'6 3.2
2015-Apr-20 23:33N 53°60' W 003°14'6 6.3
2015-Apr-20 22:33N 53°54' W 003°20'8 8.3
2015-Apr-20 21:33N 53°46' W 003°22'1010.4
2015-Apr-20 20:33N 53°36' W 003°23'7 6.9
2015-Apr-20 19:31N 53°28' W 003°22'0 0.1
2015-Apr-20 18:31N 53°29' W 003°22'0 0.0
2015-Apr-20 17:31N 53°29' W 003°22'0 0.1
2015-Apr-20 16:33N 53°28' W 003°22'8 7.5
2015-Apr-20 15:34N 53°36' W 003°23'10 9.5
2015-Apr-20 14:33N 53°45' W 003°30'7 6.5
2015-Apr-20 13:32N 53°45' W 003°41'10 9.8
2015-Apr-20 12:30N 53°40' W 003°57'187 8.1
2015-Apr-19 13:28N 50°47' W 005°51'11 9.2
2015-Apr-19 12:19N 50°36' W 005°51'95 6.4
2015-Apr-18 21:25N 50°06' W 003°30'8 9.4
2015-Apr-18 20:33N 50°08' W 003°17'9 8.5
2015-Apr-18 19:33N 50°10' W 003°04'8 7.9
2015-Apr-18 18:33N 50°11' W 002°52'33 9.7
2015-Apr-18 15:07N 50°17' W 002°01'8510.5
2015-Apr-18 07:05N 50°34' E 000°09'5 8.7
2015-Apr-18 06:33N 50°35' E 000°16'1010.0
2015-Apr-18 05:33N 50°38' E 000°31'1111.3
2015-Apr-18 04:33N 50°44' E 000°46'2211.2
2015-Apr-18 02:33N 50°58' E 001°15'9 9.4
2015-Apr-18 01:33N 51°03' E 001°26'8 7.7
2015-Apr-18 00:34N 51°08' E 001°36'7 7.2
2015-Apr-17 23:33N 51°13' E 001°45'  
Track history (hours):
 
Tides and Currents Weather Stations Pressure Air Temp Water Temp Dewpoint Dewpoint Depression Visibility Wind Speed Wind Dir Waves Ship Positions

Novomar

Last reported at 2015-Apr-27 23:09 UTC. Time now 2015-May-05 22:22 UTC.
Position N 55°38' E 015°23'.

Length 89 m; draft 5.5 m.

Type: Cargo ship. MMSI: 210974000.

Date/timePositionNaut miles runAvg speedWind from/ knotsBaromVisibWave heightAir tempDewpointWater temp
2015-Apr-27 23:09N 55°38' E 015°23'5 8.8
2015-Apr-27 22:33N 55°35' E 015°15'9 8.7
2015-Apr-27 21:33N 55°31' E 015°02'9 8.6
2015-Apr-27 20:33N 55°27' E 014°49'9 8.8
2015-Apr-27 19:33N 55°21' E 014°36'10 8.8
2015-Apr-27 18:28N 55°14' E 014°25'8 8.3
2015-Apr-27 17:32N 55°10' E 014°14'12 8.5
2015-Apr-27 16:11N 55°11' E 013°54'6 8.2
2015-Apr-27 15:30N 55°12' E 013°44'34 8.8
2015-Apr-27 11:33N 55°17' E 012°44'7 7.4
2015-Apr-27 10:33N 55°24' E 012°39'9 8.9
2015-Apr-27 09:33N 55°32' E 012°42'9 9.2
2015-Apr-27 08:33N 55°41' E 012°41'1010.1
2015-Apr-27 07:33N 55°51' E 012°39'10 9.8
2015-Apr-27 06:33N 56°01' E 012°38'9 8.9
2015-Apr-27 05:33N 56°08' E 012°28'1010.4
2015-Apr-27 04:33N 56°14' E 012°13'6610.5
2015-Apr-26 22:17N 57°16' E 011°32'7 9.9
2015-Apr-26 21:33N 57°23' E 011°27'9 9.4
2015-Apr-26 20:33N 57°31' E 011°17'1010.1
2015-Apr-26 19:31N 57°38' E 011°03'446 9.9
2015-Apr-24 22:20N 58°39' W 002°55'7 9.5
2015-Apr-24 21:33N 58°43' W 003°06'17 8.6
2015-Apr-24 19:33N 58°42' W 003°39'9 9.3
2015-Apr-24 18:33N 58°42' W 003°57'9 9.3
2015-Apr-24 17:33N 58°42' W 004°15'192 8.7
2015-Apr-23 19:33N 55°45' W 006°35'1110.8
2015-Apr-23 18:33N 55°35' W 006°29'1212.0
2015-Apr-23 17:33N 55°27' W 006°14'1212.0
2015-Apr-23 16:33N 55°19' W 005°57'1212.2
2015-Apr-23 15:33N 55°09' W 005°46'1310.6
2015-Apr-23 14:19N 54°57' W 005°36'7 9.6
2015-Apr-23 13:33N 54°51' W 005°30'9 8.5
2015-Apr-23 12:33N 54°43' W 005°25'8 8.1
2015-Apr-23 11:33N 54°35' W 005°20'9 9.1
2015-Apr-23 10:33N 54°27' W 005°14'10 9.9
2015-Apr-23 09:33N 54°18' W 005°06'1010.2
2015-Apr-23 08:32N 54°08' W 004°59'4511.1
2015-Apr-23 04:30N 53°34' W 004°10'1111.8
2015-Apr-23 03:33N 53°26' W 003°57'1111.1
2015-Apr-23 02:33N 53°20' W 003°41'2 1.9
2015-Apr-23 01:15N 53°18' W 003°40'0 0.0
2015-Apr-23 00:33N 53°18' W 003°40'0 0.0
2015-Apr-22 23:30N 53°18' W 003°40'0 0.4
2015-Apr-22 22:34N 53°18' W 003°40'3 2.5
2015-Apr-22 21:30N 53°21' W 003°41'0 0.1
2015-Apr-22 20:33N 53°21' W 003°41'0 0.1
2015-Apr-22 19:33N 53°21' W 003°41'0 0.0
2015-Apr-22 18:33N 53°21' W 003°41'0 0.0
2015-Apr-22 17:33N 53°21' W 003°41'0 0.0
2015-Apr-22 16:30N 53°21' W 003°41'0 0.0
2015-Apr-22 15:33N 53°21' W 003°41'0 0.0
2015-Apr-22 14:30N 53°21' W 003°41'0 0.5
2015-Apr-22 13:33N 53°21' W 003°41'3 2.5
2015-Apr-22 12:25N 53°18' W 003°40'0 0.0
2015-Apr-22 11:25N 53°18' W 003°40'0 0.0
2015-Apr-22 09:33N 53°18' W 003°40'2 2.0
2015-Apr-22 08:33N 53°20' W 003°41'1 1.0
2015-Apr-22 07:26N 53°21' W 003°42'0 0.0
2015-Apr-22 06:32N 53°21' W 003°42'0 0.0
2015-Apr-22 05:33N 53°21' W 003°42'6 5.6
2015-Apr-22 04:28N 53°25' W 003°50'1110.8
2015-Apr-22 03:25N 53°36' W 003°46'36 6.8
2015-Apr-21 22:11N 54°06' W 003°13'0 0.1
2015-Apr-21 19:27N 54°06' W 003°14'0 0.0
2015-Apr-21 01:32N 54°06' W 003°13'6 3.2
2015-Apr-20 23:33N 53°60' W 003°14'6 6.3
2015-Apr-20 22:33N 53°54' W 003°20'8 8.3
2015-Apr-20 21:33N 53°46' W 003°22'1010.4
2015-Apr-20 20:33N 53°36' W 003°23'7 6.9
2015-Apr-20 19:31N 53°28' W 003°22'0 0.1
2015-Apr-20 18:31N 53°29' W 003°22'0 0.0
2015-Apr-20 17:31N 53°29' W 003°22'0 0.1
2015-Apr-20 16:33N 53°28' W 003°22'8 7.5
2015-Apr-20 15:34N 53°36' W 003°23'10 9.5
2015-Apr-20 14:33N 53°45' W 003°30'7 6.5
2015-Apr-20 13:32N 53°45' W 003°41'10 9.8
2015-Apr-20 12:30N 53°40' W 003°57'187 8.1
2015-Apr-19 13:28N 50°47' W 005°51'11 9.2
2015-Apr-19 12:19N 50°36' W 005°51'95 6.4
2015-Apr-18 21:25N 50°06' W 003°30'8 9.4
2015-Apr-18 20:33N 50°08' W 003°17'9 8.5
2015-Apr-18 19:33N 50°10' W 003°04'8 7.9
2015-Apr-18 18:33N 50°11' W 002°52'33 9.7
2015-Apr-18 15:07N 50°17' W 002°01'8510.5
2015-Apr-18 07:05N 50°34' E 000°09'5 8.7
2015-Apr-18 06:33N 50°35' E 000°16'1010.0
2015-Apr-18 05:33N 50°38' E 000°31'1111.3
2015-Apr-18 04:33N 50°44' E 000°46'2211.2
2015-Apr-18 02:33N 50°58' E 001°15'9 9.4
2015-Apr-18 01:33N 51°03' E 001°26'8 7.7
2015-Apr-18 00:34N 51°08' E 001°36'7 7.2
2015-Apr-17 23:33N 51°13' E 001°45'  

Dump ship's entire track history